Time;durP1;ratioP1;P1;durP2;ratioP2;P2;SDS_P1;SDS_P2;PMS_P1;PMS_P2;Temp;Humidity;BMP_temperature;BMP_pressure;BME280_temperature;BME280_humidity;BME280_pressure;Samples;Min_cycle;Max_cycle;Signal;HPM_P1;HPM_P2
2022/08/22 00:02:08;;;;;;;7.65;4.45;;;;;;;;;;4944769;29;20075;-65
2022/08/22 00:04:52;;;;;;;12.68;4.53;;;;;;;;;;4942515;29;20035;-66
2022/08/22 00:07:36;;;;;;;9.05;4.70;;;;;;;;;;4943994;29;20391;-66
2022/08/22 00:10:07;;;;;;;6.18;4.40;;;;;;;;;;4952906;29;20512;-65
2022/08/22 00:12:39;;;;;;;10.07;4.70;;;;;;;;;;4953906;29;20039;-66
2022/08/22 00:15:11;;;;;;;12.88;4.20;;;;;;;;;;4953735;29;20043;-65
2022/08/22 00:17:57;;;;;;;10.45;4.40;;;;;;;;;;4953801;29;20157;-66
2022/08/22 00:20:23;;;;;;;12.25;4.20;;;;;;;;;;4953825;29;20031;-66
2022/08/22 00:23:09;;;;;;;9.55;4.13;;;;;;;;;;4953557;29;20477;-66
2022/08/22 00:25:47;;;;;;;9.25;4.43;;;;;;;;;;4991682;28;20046;-66
2022/08/22 00:28:35;;;;;;;9.85;4.63;;;;;;;;;;4992375;28;20069;-66
2022/08/22 00:31:25;;;;;;;7.03;4.65;;;;;;;;;;4992224;28;20038;-64
2022/08/22 00:34:03;;;;;;;8.85;4.15;;;;;;;;;;4992257;28;20085;-65
2022/08/22 00:36:45;;;;;;;7.75;4.25;;;;;;;;;;5032543;28;20036;-65
2022/08/22 00:39:38;;;;;;;7.88;4.28;;;;;;;;;;5053808;28;20033;-65
2022/08/22 00:42:12;;;;;;;14.90;4.68;;;;;;;;;;5064688;28;20460;-66
2022/08/22 00:45:11;;;;;;;7.30;4.60;;;;;;;;;;5073290;28;20075;-65
2022/08/22 00:48:02;;;;;;;10.20;4.80;;;;;;;;;;5073612;28;20076;-66
2022/08/22 00:50:51;;;;;;;8.05;4.45;;;;;;;;;;5073579;28;20036;-66
2022/08/22 00:53:29;;;;;;;6.05;4.35;;;;;;;;;;5073330;28;20044;-66
2022/08/22 00:56:25;;;;;;;6.90;4.70;;;;;;;;;;5073415;28;20108;-66
2022/08/22 00:59:12;;;;;;;10.82;4.90;;;;;;;;;;5073165;28;20021;-66
2022/08/22 01:01:50;;;;;;;7.03;4.68;;;;;;;;;;5073300;28;20120;-65
2022/08/22 01:04:50;;;;;;;13.98;5.95;;;;;;;;;;5073313;28;20066;-65
2022/08/22 01:07:15;;;;;;;;;;;;;;;;;;5073674;28;20028;-65
2022/08/22 01:09:57;;;;;;;8.57;4.60;;;;;;;;;;5073136;28;20282;-64
2022/08/22 01:12:28;;;;;;;7.40;4.65;;;;;;;;;;5073077;28;20024;-65
2022/08/22 01:15:01;;;;;;;10.10;4.70;;;;;;;;;;5072828;28;20106;-65
2022/08/22 01:17:46;;;;;;;9.77;5.35;;;;;;;;;;5073039;28;20031;-65
2022/08/22 01:20:37;;;;;;;9.27;5.10;;;;;;;;;;5073087;28;20032;-65
2022/08/22 01:23:47;;;;;;;8.65;5.20;;;;;;;;;;5050406;28;20127;-65
2022/08/22 01:26:42;;;;;;;6.87;5.03;;;;;;;;;;4991139;28;20074;-65
2022/08/22 01:29:17;;;;;;;8.65;5.47;;;;;;;;;;4991094;28;20093;-65
2022/08/22 01:32:20;;;;;;;7.05;5.60;;;;;;;;;;4991225;28;20031;-65
2022/08/22 01:35:22;;;;;;;7.68;5.00;;;;;;;;;;4990977;28;20038;-65
2022/08/22 01:37:57;;;;;;;12.85;5.38;;;;;;;;;;4991100;28;20741;-65
2022/08/22 01:40:54;;;;;;;7.78;4.80;;;;;;;;;;4991006;28;20042;-64
2022/08/22 01:43:37;;;;;;;10.52;5.25;;;;;;;;;;4990675;28;20140;-66
2022/08/22 01:46:32;;;;;;;9.38;4.88;;;;;;;;;;4990901;28;20045;-65
2022/08/22 01:49:16;;;;;;;8.07;4.70;;;;;;;;;;4991623;28;20030;-65
2022/08/22 01:51:41;;;;;;;7.80;4.78;;;;;;;;;;4991336;28;20030;-64
2022/08/22 01:54:20;;;;;;;9.95;4.65;;;;;;;;;;4991225;28;20262;-64
2022/08/22 01:56:47;;;;;;;6.90;4.78;;;;;;;;;;4991060;28;20517;-64
2022/08/22 01:59:40;;;;;;;9.98;4.57;;;;;;;;;;4995794;28;20412;-64
2022/08/22 02:02:24;;;;;;;8.88;5.25;;;;;;;;;;5048315;28;20449;-65
2022/08/22 02:05:04;;;;;;;9.90;4.80;;;;;;;;;;5072383;28;20037;-65
2022/08/22 02:07:43;;;;;;;8.35;4.40;;;;;;;;;;5072060;28;20059;-65
2022/08/22 02:10:43;;;;;;;7.72;4.57;;;;;;;;;;5071891;28;20050;-65
2022/08/22 02:13:11;;;;;;;12.77;4.97;;;;;;;;;;5071825;28;20032;-64
2022/08/22 02:15:40;;;;;;;7.30;5.07;;;;;;;;;;5072331;28;20038;-65
2022/08/22 02:18:05;;;;;;;8.52;4.55;;;;;;;;;;5072301;28;20028;-65
2022/08/22 02:21:04;;;;;;;11.02;4.72;;;;;;;;;;5072350;28;20104;-66
2022/08/22 02:23:49;;;;;;;8.40;4.55;;;;;;;;;;5072221;28;20020;-65
2022/08/22 02:26:23;;;;;;;5.70;4.47;;;;;;;;;;5072133;28;20392;-65
2022/08/22 02:29:00;;;;;;;9.93;4.93;;;;;;;;;;5072364;28;20051;-65
2022/08/22 02:31:38;;;;;;;7.50;4.90;;;;;;;;;;5072186;28;20037;-65
2022/08/22 02:34:26;;;;;;;8.77;4.68;;;;;;;;;;5072340;28;20476;-65
2022/08/22 02:37:08;;;;;;;9.18;5.30;;;;;;;;;;5068388;28;20067;-65
2022/08/22 02:40:05;;;;;;;10.50;4.95;;;;;;;;;;5071629;28;20065;-65
2022/08/22 02:42:54;;;;;;;10.50;5.07;;;;;;;;;;5069507;28;20041;-65
2022/08/22 02:45:29;;;;;;;11.50;5.10;;;;;;;;;;5072069;28;20058;-65
2022/08/22 02:48:16;;;;;;;9.88;4.80;;;;;;;;;;5071781;28;20038;-65
2022/08/22 02:50:57;;;;;;;8.93;4.40;;;;;;;;;;5072058;28;20539;-65
2022/08/22 02:53:37;;;;;;;10.90;4.60;;;;;;;;;;5071794;28;20489;-66
2022/08/22 02:56:26;;;;;;;8.07;4.77;;;;;;;;;;5071771;28;20025;-66
2022/08/22 02:59:11;;;;;;;9.82;4.50;;;;;;;;;;5071628;28;20736;-66
2022/08/22 03:01:41;;;;;;;6.60;4.72;;;;;;;;;;5071536;28;20078;-66
2022/08/22 03:04:25;;;;;;;9.65;4.82;;;;;;;;;;5071853;28;20024;-66
2022/08/22 03:07:13;;;;;;;13.38;6.93;;;;;;;;;;5071283;28;20488;-66
2022/08/22 03:09:50;;;;;;;8.15;4.80;;;;;;;;;;5071096;28;20383;-66
2022/08/22 03:12:27;;;;;;;6.70;5.10;;;;;;;;;;5071080;28;20126;-66
2022/08/22 03:15:08;;;;;;;9.75;5.60;;;;;;;;;;5071515;28;20414;-67
2022/08/22 03:17:45;;;;;;;11.00;5.45;;;;;;;;;;5071830;28;20034;-67
2022/08/22 03:20:34;;;;;;;8.10;5.25;;;;;;;;;;5071617;28;20492;-66
2022/08/22 03:23:10;;;;;;;7.13;5.40;;;;;;;;;;5071719;28;20020;-66
2022/08/22 03:25:42;;;;;;;8.93;5.65;;;;;;;;;;5071576;28;20037;-66
2022/08/22 03:28:13;;;;;;;7.25;5.63;;;;;;;;;;5071651;28;20029;-66
2022/08/22 03:30:40;;;;;;;9.40;5.75;;;;;;;;;;5071367;28;20039;-67
2022/08/22 03:33:20;;;;;;;8.60;5.63;;;;;;;;;;5071661;28;20024;-67
2022/08/22 03:35:45;;;;;;;7.30;4.65;;;;;;;;;;5071138;28;20024;-65
2022/08/22 03:38:30;;;;;;;11.00;5.90;;;;;;;;;;5070740;28;20432;-66
2022/08/22 03:41:34;;;;;;;7.05;4.63;;;;;;;;;;5070664;28;20069;-66
2022/08/22 03:44:02;;;;;;;9.88;5.00;;;;;;;;;;5048804;28;20048;-66
2022/08/22 03:47:04;;;;;;;8.40;4.60;;;;;;;;;;5049145;28;20072;-66
2022/08/22 03:49:51;;;;;;;8.55;4.75;;;;;;;;;;5049361;28;20045;-66
2022/08/22 03:52:19;;;;;;;9.43;5.07;;;;;;;;;;5048882;28;20045;-65
2022/08/22 03:54:51;;;;;;;8.27;4.95;;;;;;;;;;5048892;28;20045;-65
2022/08/22 03:57:47;;;;;;;8.75;4.20;;;;;;;;;;5049154;28;20553;-66
2022/08/22 04:00:50;;;;;;;7.25;5.13;;;;;;;;;;5049069;28;20384;-66
2022/08/22 04:03:34;;;;;;;7.07;4.80;;;;;;;;;;5049185;28;20040;-66
2022/08/22 04:06:14;;;;;;;10.07;5.40;;;;;;;;;;5048400;28;20029;-66
2022/08/22 04:08:51;;;;;;;11.80;5.88;;;;;;;;;;5048120;28;20171;-64
2022/08/22 04:11:46;;;;;;;10.93;5.15;;;;;;;;;;5033069;28;20475;-68
2022/08/22 04:14:18;;;;;;;10.30;5.25;;;;;;;;;;5035255;28;20087;-66
2022/08/22 04:17:19;;;;;;;11.00;5.47;;;;;;;;;;5052458;28;20033;-66
2022/08/22 04:20:02;;;;;;;9.10;5.60;;;;;;;;;;5054052;28;20175;-65
2022/08/22 04:23:08;;;;;;;11.07;6.00;;;;;;;;;;5074349;28;20028;-66
2022/08/22 04:25:50;;;;;;;10.95;5.93;;;;;;;;;;5074672;28;20024;-66
2022/08/22 04:28:33;;;;;;;11.82;6.60;;;;;;;;;;5074339;28;20029;-65
2022/08/22 04:31:05;;;;;;;10.10;6.13;;;;;;;;;;5074350;28;20029;-65
2022/08/22 04:33:40;;;;;;;6.90;5.45;;;;;;;;;;5074580;28;20027;-64
2022/08/22 04:36:19;;;;;;;9.40;5.70;;;;;;;;;;5073539;28;20024;-64
2022/08/22 04:39:19;;;;;;;8.55;5.70;;;;;;;;;;5073736;28;20036;-66
2022/08/22 04:41:52;;;;;;;9.07;5.43;;;;;;;;;;5073414;28;20042;-64
2022/08/22 04:44:46;;;;;;;14.05;7.80;;;;;;;;;;5073570;28;20040;-65
2022/08/22 04:47:35;;;;;;;9.27;7.57;;;;;;;;;;5074130;28;20021;-66
2022/08/22 04:50:26;;;;;;;9.55;6.40;;;;;;;;;;5074114;28;20029;-65
2022/08/22 04:53:24;;;;;;;8.38;6.53;;;;;;;;;;5073332;28;20510;-65
2022/08/22 04:56:10;;;;;;;14.40;7.03;;;;;;;;;;5051573;28;20056;-65
2022/08/22 04:58:58;;;;;;;10.45;7.22;;;;;;;;;;5051685;28;20036;-65
2022/08/22 05:01:42;;;;;;;12.20;7.07;;;;;;;;;;5051448;28;20063;-66
2022/08/22 05:04:17;;;;;;;11.43;7.50;;;;;;;;;;5051388;28;20032;-66
2022/08/22 05:06:48;;;;;;;16.15;9.95;;;;;;;;;;5050542;28;20044;-65
2022/08/22 05:09:19;;;;;;;11.38;7.85;;;;;;;;;;5050789;28;20384;-65
2022/08/22 05:11:49;;;;;;;10.68;7.32;;;;;;;;;;5050659;28;20665;-66
2022/08/22 05:14:35;;;;;;;18.98;8.98;;;;;;;;;;5050596;28;20041;-66
2022/08/22 05:17:03;;;;;;;15.13;7.13;;;;;;;;;;5051276;28;20040;-64
2022/08/22 05:19:36;;;;;;;9.93;5.72;;;;;;;;;;5051083;28;20060;-66
2022/08/22 05:22:03;;;;;;;13.05;6.40;;;;;;;;;;5050857;28;20051;-65
2022/08/22 05:24:38;;;;;;;10.93;5.60;;;;;;;;;;5051149;28;20035;-66
2022/08/22 05:27:11;;;;;;;10.10;5.45;;;;;;;;;;5051244;28;20041;-65
2022/08/22 05:29:42;;;;;;;9.80;5.55;;;;;;;;;;5051327;28;20052;-65
2022/08/22 05:32:17;;;;;;;11.10;5.90;;;;;;;;;;5056819;28;20503;-66
2022/08/22 05:34:45;;;;;;;12.45;5.70;;;;;;;;;;5072739;28;20052;-65
2022/08/22 05:37:16;;;;;;;14.93;5.93;;;;;;;;;;5072592;28;20025;-64
2022/08/22 05:39:46;;;;;;;9.90;5.30;;;;;;;;;;5072645;28;20475;-65
2022/08/22 05:42:33;;;;;;;10.57;5.78;;;;;;;;;;5072207;28;20036;-64
2022/08/22 05:45:01;;;;;;;10.00;5.28;;;;;;;;;;5072873;28;20510;-65
2022/08/22 05:47:37;;;;;;;9.48;5.18;;;;;;;;;;5055679;28;20032;-65
2022/08/22 05:50:05;;;;;;;8.57;5.40;;;;;;;;;;5052668;28;20045;-65
2022/08/22 05:53:01;;;;;;;10.95;5.35;;;;;;;;;;5057781;28;20039;-65
2022/08/22 05:55:54;;;;;;;12.27;5.40;;;;;;;;;;5065971;28;20491;-65
2022/08/22 05:58:38;;;;;;;9.68;4.65;;;;;;;;;;5063440;28;20024;-65
2022/08/22 06:01:19;;;;;;;14.45;4.70;;;;;;;;;;5061601;28;20048;-66
2022/08/22 06:04:05;;;;;;;8.43;5.15;;;;;;;;;;5061477;28;20024;-66
2022/08/22 06:06:47;;;;;;;8.55;4.75;;;;;;;;;;5068466;28;20063;-65
2022/08/22 06:09:29;;;;;;;13.65;4.75;;;;;;;;;;5073027;28;20091;-65
2022/08/22 06:11:57;;;;;;;9.93;5.40;;;;;;;;;;5072756;28;20120;-65
2022/08/22 06:14:46;;;;;;;15.45;5.57;;;;;;;;;;5072680;28;20021;-66
2022/08/22 06:17:20;;;;;;;11.70;5.72;;;;;;;;;;5055049;28;20024;-65
2022/08/22 06:19:48;;;;;;;9.73;5.13;;;;;;;;;;5060900;28;20121;-65
2022/08/22 06:22:23;;;;;;;12.90;5.60;;;;;;;;;;5066769;28;20031;-65
2022/08/22 06:24:50;;;;;;;11.85;5.60;;;;;;;;;;5067824;28;20035;-65
2022/08/22 06:27:21;;;;;;;14.50;5.78;;;;;;;;;;5052665;28;20111;-65
2022/08/22 06:29:51;;;;;;;13.57;5.57;;;;;;;;;;5052723;28;20074;-65
2022/08/22 06:32:22;;;;;;;;;;;;;;;;;;5052670;28;20051;-65
2022/08/22 06:34:51;;;;;;;14.38;4.15;;;;;;;;;;5051882;28;20004;-65
2022/08/22 06:37:30;;;;;;;13.30;3.60;;;;;;;;;;5052563;28;20526;-65
2022/08/22 06:39:57;;;;;;;9.03;3.53;;;;;;;;;;5052551;28;20056;-65
2022/08/22 06:42:31;;;;;;;8.43;3.88;;;;;;;;;;5066047;28;20033;-65
2022/08/22 06:45:10;;;;;;;9.95;3.60;;;;;;;;;;5072582;28;20058;-65
2022/08/22 06:47:49;;;;;;;9.65;3.13;;;;;;;;;;5072212;28;20021;-66
2022/08/22 06:50:20;;;;;;;7.22;3.15;;;;;;;;;;5072243;28;20024;-66
2022/08/22 06:53:00;;;;;;;6.43;3.60;;;;;;;;;;5070913;28;20068;-68
2022/08/22 06:55:28;;;;;;;7.57;3.22;;;;;;;;;;5072163;28;20033;-66
2022/08/22 06:58:02;;;;;;;7.88;2.95;;;;;;;;;;5072316;28;20422;-65
2022/08/22 07:00:33;;;;;;;7.63;3.00;;;;;;;;;;5072410;28;20033;-65
2022/08/22 07:03:11;;;;;;;9.60;3.13;;;;;;;;;;5072087;28;20031;-64
2022/08/22 07:05:39;;;;;;;8.95;3.30;;;;;;;;;;5072183;28;20067;-65
2022/08/22 07:08:19;;;;;;;10.63;3.17;;;;;;;;;;5064318;28;20033;-65
2022/08/22 07:10:55;;;;;;;8.50;3.00;;;;;;;;;;5066904;28;20029;-65
2022/08/22 07:13:23;;;;;;;10.63;2.90;;;;;;;;;;5072302;28;20040;-65
2022/08/22 07:15:55;;;;;;;6.65;2.60;;;;;;;;;;5071831;28;20117;-66
2022/08/22 07:18:25;;;;;;;7.82;3.22;;;;;;;;;;5072292;28;20060;-66
2022/08/22 07:20:58;;;;;;;12.32;3.53;;;;;;;;;;5072080;28;20036;-65
2022/08/22 07:23:39;;;;;;;8.80;2.92;;;;;;;;;;5072016;28;20495;-66
2022/08/22 07:26:26;;;;;;;8.57;3.10;;;;;;;;;;5071828;28;20036;-65
2022/08/22 07:28:57;;;;;;;10.40;3.40;;;;;;;;;;5072047;28;20044;-66
2022/08/22 07:31:33;;;;;;;8.65;3.00;;;;;;;;;;5071739;28;20464;-66
2022/08/22 07:34:16;;;;;;;8.20;3.38;;;;;;;;;;5072038;28;20040;-66
2022/08/22 07:36:47;;;;;;;7.25;2.58;;;;;;;;;;5071837;28;20025;-65
2022/08/22 07:39:22;;;;;;;12.40;2.78;;;;;;;;;;5072011;28;20082;-65
2022/08/22 07:42:10;;;;;;;8.38;2.72;;;;;;;;;;5071666;28;20021;-66
2022/08/22 07:44:55;;;;;;;8.73;2.78;;;;;;;;;;5070965;28;20434;-67
2022/08/22 07:47:26;;;;;;;6.57;2.60;;;;;;;;;;5053327;28;20037;-67
2022/08/22 07:50:03;;;;;;;8.35;2.70;;;;;;;;;;5053395;28;20035;-65
2022/08/22 07:52:38;;;;;;;9.50;3.10;;;;;;;;;;5053274;28;20048;-67
2022/08/22 07:55:07;;;;;;;13.18;3.28;;;;;;;;;;5053363;28;20086;-68
2022/08/22 07:57:40;;;;;;;8.27;2.90;;;;;;;;;;5053215;28;20063;-68
2022/08/22 08:00:13;;;;;;;12.88;4.32;;;;;;;;;;5053168;28;20072;-66
2022/08/22 08:02:51;;;;;;;7.90;3.38;;;;;;;;;;5036522;28;20567;-68
2022/08/22 08:05:21;;;;;;;10.63;3.33;;;;;;;;;;5053139;28;20503;-66
2022/08/22 08:07:47;;;;;;;12.77;6.27;;;;;;;;;;5053046;28;20087;-66
2022/08/22 08:10:24;;;;;;;8.93;3.15;;;;;;;;;;5052425;28;20281;-68
2022/08/22 08:12:53;;;;;;;6.80;3.65;;;;;;;;;;5053032;28;20519;-65
2022/08/22 08:15:21;;;;;;;8.30;3.60;;;;;;;;;;5052752;28;20087;-67
2022/08/22 08:17:51;;;;;;;7.47;3.13;;;;;;;;;;5052904;28;20438;-65
2022/08/22 08:20:20;;;;;;;6.40;3.33;;;;;;;;;;5052879;28;20040;-68
2022/08/22 08:22:48;;;;;;;6.73;2.97;;;;;;;;;;5052795;28;20033;-65
2022/08/22 08:25:19;;;;;;;6.93;3.10;;;;;;;;;;5049695;28;20045;-66
2022/08/22 08:30:46;;;;;;;7.28;3.08;;;;;;;;;;5054753;28;20522;-66
2022/08/22 08:33:17;;;;;;;14.23;3.20;;;;;;;;;;5054754;28;20029;-65
2022/08/22 08:35:51;;;;;;;8.52;2.80;;;;;;;;;;5054607;28;20025;-65
2022/08/22 08:38:21;;;;;;;8.07;2.78;;;;;;;;;;5053429;28;20065;-66
2022/08/22 08:41:14;;;;;;;7.47;2.60;;;;;;;;;;5055583;28;20100;-65
2022/08/22 08:43:45;;;;;;;7.93;2.63;;;;;;;;;;5072135;28;20479;-65
2022/08/22 08:46:13;;;;;;;8.05;2.70;;;;;;;;;;5064628;28;20061;-66
2022/08/22 08:49:10;;;;;;;9.52;2.63;;;;;;;;;;5057415;28;20102;-65
2022/08/22 08:51:49;;;;;;;8.27;2.92;;;;;;;;;;5054434;28;20033;-64
2022/08/22 08:54:17;;;;;;;8.07;2.35;;;;;;;;;;5059851;28;20064;-65
2022/08/22 08:57:07;;;;;;;7.45;2.55;;;;;;;;;;5052335;28;20029;-65
2022/08/22 08:59:49;;;;;;;11.60;2.63;;;;;;;;;;5054261;28;20025;-65
2022/08/22 09:02:33;;;;;;;10.50;2.20;;;;;;;;;;5054177;28;20033;-66
2022/08/22 09:05:11;;;;;;;9.32;2.28;;;;;;;;;;5054272;28;20060;-65
2022/08/22 09:08:13;;;;;;;13.82;2.97;;;;;;;;;;5052822;28;20032;-66
2022/08/22 09:10:57;;;;;;;8.27;2.92;;;;;;;;;;5054008;28;20464;-65
2022/08/22 09:13:40;;;;;;;6.70;2.70;;;;;;;;;;5053867;28;20037;-66
2022/08/22 09:16:34;;;;;;;6.32;2.05;;;;;;;;;;5053854;28;20032;-66
2022/08/22 09:19:44;;;;;;;6.22;2.25;;;;;;;;;;5053905;28;20476;-66
2022/08/22 09:22:25;;;;;;;;;;;;;;;;;;5012187;28;20432;-66
2022/08/22 09:25:02;;;;;;;7.53;2.20;;;;;;;;;;5011990;28;20380;-66
2022/08/22 09:27:32;;;;;;;8.07;2.17;;;;;;;;;;5011376;28;20481;-64
2022/08/22 09:30:04;;;;;;;;;;;;;;;;;;5012278;28;20060;-65
2022/08/22 09:32:55;;;;;;;9.27;2.10;;;;;;;;;;5011887;28;19909;-66
2022/08/22 09:35:24;;;;;;;6.97;1.85;;;;;;;;;;5011791;28;20033;-66
2022/08/22 09:37:52;;;;;;;8.30;1.90;;;;;;;;;;5011577;28;20042;-65
2022/08/22 09:40:27;;;;;;;6.55;2.15;;;;;;;;;;5011532;28;20026;-66
2022/08/22 09:43:36;;;;;;;8.43;1.83;;;;;;;;;;5011389;28;20124;-66
2022/08/22 09:46:15;;;;;;;7.00;2.28;;;;;;;;;;4990446;28;20080;-66
2022/08/22 09:48:53;;;;;;;7.20;1.70;;;;;;;;;;5011370;28;20112;-65
2022/08/22 09:51:33;;;;;;;6.38;1.83;;;;;;;;;;5011423;28;20063;-65
2022/08/22 09:54:36;;;;;;;8.48;2.15;;;;;;;;;;5011421;28;20050;-65
2022/08/22 09:57:32;;;;;;;5.07;2.15;;;;;;;;;;5019059;28;20048;-65
2022/08/22 10:00:22;;;;;;;8.10;2.10;;;;;;;;;;5053224;28;20060;-65
2022/08/22 10:03:17;;;;;;;6.25;2.15;;;;;;;;;;5053149;28;20383;-65
2022/08/22 10:06:09;;;;;;;8.18;2.08;;;;;;;;;;5052863;28;20461;-66
2022/08/22 10:08:59;;;;;;;5.40;1.95;;;;;;;;;;5052030;28;20112;-65
2022/08/22 10:11:26;;;;;;;;;;;;;;;;;;5052987;28;20123;-65
2022/08/22 10:14:43;;;;;;;6.13;1.70;;;;;;;;;;5052982;28;19967;-65
2022/08/22 10:17:29;;;;;;;6.72;1.73;;;;;;;;;;5030845;28;20045;-65
2022/08/22 10:20:04;;;;;;;6.75;2.00;;;;;;;;;;5030719;28;20029;-66
2022/08/22 10:23:06;;;;;;;8.20;1.88;;;;;;;;;;5030579;28;20041;-65
2022/08/22 10:26:07;;;;;;;6.70;2.00;;;;;;;;;;5017546;28;20048;-65
2022/08/22 10:28:56;;;;;;;5.00;1.77;;;;;;;;;;4952112;28;20038;-65
2022/08/22 10:31:49;;;;;;;6.22;1.90;;;;;;;;;;4952532;29;20051;-65
2022/08/22 10:34:29;;;;;;;6.32;1.90;;;;;;;;;;4952343;29;20039;-65
2022/08/22 10:37:12;;;;;;;6.18;2.00;;;;;;;;;;4952410;29;20046;-65
2022/08/22 10:40:09;;;;;;;4.53;1.77;;;;;;;;;;4952155;29;20066;-65
2022/08/22 10:42:40;;;;;;;5.78;2.00;;;;;;;;;;4947567;29;20505;-66
2022/08/22 10:45:29;;;;;;;4.85;1.98;;;;;;;;;;4952478;29;20047;-65
2022/08/22 10:47:58;;;;;;;4.57;1.83;;;;;;;;;;4975259;28;20086;-66
2022/08/22 10:50:30;;;;;;;8.32;1.92;;;;;;;;;;4974471;28;20505;-65
2022/08/22 10:55:51;;;;;;;8.15;2.00;;;;;;;;;;4990808;28;20278;-65
2022/08/22 10:58:25;;;;;;;6.93;2.00;;;;;;;;;;4990825;28;20038;-65
2022/08/22 11:01:03;;;;;;;4.38;2.22;;;;;;;;;;4990841;28;20629;-65
2022/08/22 11:04:07;;;;;;;9.18;2.10;;;;;;;;;;4990791;28;20034;-65
2022/08/22 11:06:45;;;;;;;4.75;1.92;;;;;;;;;;5049547;28;20041;-66
2022/08/22 11:09:16;;;;;;;5.13;1.98;;;;;;;;;;5049897;28;20044;-66
2022/08/22 11:11:46;;;;;;;6.82;2.50;;;;;;;;;;5049862;28;20091;-65
2022/08/22 11:14:30;;;;;;;4.93;1.90;;;;;;;;;;5049618;28;20109;-66
2022/08/22 11:17:14;;;;;;;4.75;2.20;;;;;;;;;;5049878;28;20032;-66
2022/08/22 11:19:48;;;;;;;4.38;1.65;;;;;;;;;;5050473;28;20064;-65
2022/08/22 11:22:33;;;;;;;5.72;2.20;;;;;;;;;;5053741;28;20067;-65
2022/08/22 11:25:25;;;;;;;7.93;2.08;;;;;;;;;;5053912;28;20164;-65
2022/08/22 11:28:16;;;;;;;4.43;1.58;;;;;;;;;;5053899;28;20099;-65
2022/08/22 11:31:04;;;;;;;5.13;1.80;;;;;;;;;;5053397;28;20139;-65
2022/08/22 11:33:48;;;;;;;5.20;1.85;;;;;;;;;;4973824;28;20121;-65
2022/08/22 11:36:35;;;;;;;6.18;1.85;;;;;;;;;;4971363;28;20097;-65
2022/08/22 11:39:20;;;;;;;6.38;1.90;;;;;;;;;;4974988;28;20565;-65
2022/08/22 11:41:51;;;;;;;6.05;1.85;;;;;;;;;;4974582;28;20498;-64
2022/08/22 11:44:24;;;;;;;6.50;2.25;;;;;;;;;;4974903;28;20047;-66
2022/08/22 11:46:51;;;;;;;3.92;1.60;;;;;;;;;;4974594;28;20030;-66
2022/08/22 11:49:22;;;;;;;7.93;1.95;;;;;;;;;;4974828;28;20458;-66
2022/08/22 11:52:17;;;;;;;11.82;2.35;;;;;;;;;;4974165;28;20087;-66
2022/08/22 11:54:45;;;;;;;6.47;1.73;;;;;;;;;;4974700;28;20045;-65
2022/08/22 11:57:16;;;;;;;4.38;2.00;;;;;;;;;;4974225;28;20074;-66
2022/08/22 11:59:42;;;;;;;8.32;2.05;;;;;;;;;;4974556;28;20026;-66
2022/08/22 12:02:26;;;;;;;6.88;2.25;;;;;;;;;;4974512;28;20122;-66
2022/08/22 12:04:57;;;;;;;7.30;1.88;;;;;;;;;;4974561;28;20043;-66
2022/08/22 12:07:30;;;;;;;7.25;1.80;;;;;;;;;;4974228;28;20031;-65
2022/08/22 12:10:08;;;;;;;6.93;1.85;;;;;;;;;;4995350;28;20037;-66
2022/08/22 12:12:51;;;;;;;5.63;2.08;;;;;;;;;;5055062;28;20511;-66
2022/08/22 12:15:37;;;;;;;4.93;2.20;;;;;;;;;;5054870;28;20476;-66
2022/08/22 12:18:36;;;;;;;5.68;2.03;;;;;;;;;;5054932;28;20028;-66
2022/08/22 12:21:34;;;;;;;5.60;2.60;;;;;;;;;;5054742;28;20028;-66
2022/08/22 12:24:28;;;;;;;6.65;2.13;;;;;;;;;;5054978;28;20411;-66
2022/08/22 12:27:20;;;;;;;9.15;2.78;;;;;;;;;;5054701;28;20476;-67
2022/08/22 12:30:02;;;;;;;9.55;2.58;;;;;;;;;;5054785;28;20395;-67
2022/08/22 12:32:47;;;;;;;4.88;2.00;;;;;;;;;;5052509;28;20028;-66
2022/08/22 12:35:47;;;;;;;9.43;2.20;;;;;;;;;;5061904;28;20095;-66
2022/08/22 12:38:46;;;;;;;7.70;2.15;;;;;;;;;;5064438;28;20028;-66
2022/08/22 12:41:57;;;;;;;6.17;1.97;;;;;;;;;;5072525;28;20028;-66
2022/08/22 12:44:57;;;;;;;7.38;2.10;;;;;;;;;;5052359;28;20837;-65
2022/08/22 12:47:34;;;;;;;5.40;1.55;;;;;;;;;;5052204;28;20144;-66
2022/08/22 12:50:16;;;;;;;4.47;1.70;;;;;;;;;;5052072;28;20147;-66
2022/08/22 12:52:51;;;;;;;5.43;1.90;;;;;;;;;;5052125;28;20547;-65
2022/08/22 12:55:34;;;;;;;5.53;2.10;;;;;;;;;;5052012;28;20180;-66
2022/08/22 12:58:19;;;;;;;7.70;1.88;;;;;;;;;;5052221;28;20143;-66
2022/08/22 13:00:46;;;;;;;6.10;2.00;;;;;;;;;;5052028;28;20150;-66
2022/08/22 13:03:34;;;;;;;8.07;2.08;;;;;;;;;;5051726;28;20060;-65
2022/08/22 13:06:35;;;;;;;5.63;2.10;;;;;;;;;;5052019;28;20420;-66
2022/08/22 13:09:08;;;;;;;8.88;2.30;;;;;;;;;;5043670;28;20071;-67
2022/08/22 13:11:39;;;;;;;9.60;2.28;;;;;;;;;;5051505;28;20400;-66
2022/08/22 13:14:07;;;;;;;4.18;1.83;;;;;;;;;;5051896;28;20412;-66
2022/08/22 13:16:40;;;;;;;6.65;2.15;;;;;;;;;;5051913;28;20033;-66
2022/08/22 13:19:10;;;;;;;6.75;2.40;;;;;;;;;;5051574;28;20029;-67
2022/08/22 13:21:43;;;;;;;5.72;2.10;;;;;;;;;;5066465;28;20438;-65
2022/08/22 13:24:14;;;;;;;7.57;2.10;;;;;;;;;;5073590;28;20078;-66
2022/08/22 13:27:02;;;;;;;7.88;2.65;;;;;;;;;;5073810;28;20029;-65
2022/08/22 13:29:47;;;;;;;4.53;1.98;;;;;;;;;;5073308;28;20086;-66
2022/08/22 13:32:45;;;;;;;4.18;2.30;;;;;;;;;;5073565;28;20102;-65
2022/08/22 13:35:38;;;;;;;7.82;2.05;;;;;;;;;;5073507;28;20028;-66
2022/08/22 13:38:18;;;;;;;10.40;2.53;;;;;;;;;;5073560;28;20020;-67
2022/08/22 13:40:46;;;;;;;10.70;2.47;;;;;;;;;;5073189;28;20024;-66
2022/08/22 13:43:22;;;;;;;11.13;2.60;;;;;;;;;;5073272;28;20036;-66
2022/08/22 13:45:58;;;;;;;7.13;2.10;;;;;;;;;;5073427;28;20021;-66
2022/08/22 13:48:29;;;;;;;6.85;2.05;;;;;;;;;;5073650;28;20029;-67
2022/08/22 13:51:13;;;;;;;5.20;2.33;;;;;;;;;;5073494;28;20012;-65
2022/08/22 13:53:49;;;;;;;8.15;2.58;;;;;;;;;;5073085;28;20048;-66
2022/08/22 13:56:26;;;;;;;10.75;1.95;;;;;;;;;;5066030;28;20430;-66
2022/08/22 13:58:57;;;;;;;4.97;2.08;;;;;;;;;;5068868;28;20020;-65
2022/08/22 14:01:42;;;;;;;9.75;2.30;;;;;;;;;;5072718;28;20048;-65
2022/08/22 14:04:34;;;;;;;5.43;2.05;;;;;;;;;;5073145;28;20056;-65
2022/08/22 14:07:03;;;;;;;7.28;2.10;;;;;;;;;;5070445;28;20047;-65
2022/08/22 14:09:31;;;;;;;5.47;2.40;;;;;;;;;;5072791;28;20024;-65
2022/08/22 14:12:10;;;;;;;6.95;2.63;;;;;;;;;;5072773;28;20488;-65
2022/08/22 14:14:39;;;;;;;7.68;2.58;;;;;;;;;;5072801;28;20111;-65
2022/08/22 14:17:07;;;;;;;8.38;2.40;;;;;;;;;;5072557;28;20033;-65
2022/08/22 14:19:37;;;;;;;10.60;2.67;;;;;;;;;;5072730;28;20040;-66
2022/08/22 14:22:12;;;;;;;;;;;;;;;;;;5073053;28;20025;-66
2022/08/22 14:24:46;;;;;;;6.28;2.30;;;;;;;;;;5072736;28;19985;-65
2022/08/22 14:27:14;;;;;;;7.20;2.65;;;;;;;;;;5072358;28;20036;-66
2022/08/22 14:29:50;;;;;;;5.88;2.90;;;;;;;;;;5072558;28;20574;-65
2022/08/22 14:32:18;;;;;;;8.48;2.63;;;;;;;;;;5072467;28;20033;-65
2022/08/22 14:34:54;;;;;;;13.50;3.22;;;;;;;;;;5059167;28;20369;-65
2022/08/22 14:37:24;;;;;;;12.52;3.03;;;;;;;;;;5071751;28;20067;-66
2022/08/22 14:39:56;;;;;;;7.47;3.20;;;;;;;;;;5072655;28;20051;-66
2022/08/22 14:43:03;;;;;;;7.40;3.13;;;;;;;;;;5072394;28;20071;-65
2022/08/22 14:45:35;;;;;;;10.25;3.10;;;;;;;;;;5049862;28;20048;-66
2022/08/22 14:48:38;;;;;;;9.00;3.28;;;;;;;;;;5050467;28;20036;-65
2022/08/22 14:51:09;;;;;;;13.48;3.10;;;;;;;;;;4990586;28;20156;-65
2022/08/22 14:53:38;;;;;;;11.85;2.80;;;;;;;;;;4990653;28;20460;-66
2022/08/22 14:56:18;;;;;;;8.15;2.60;;;;;;;;;;4990035;28;20129;-66
2022/08/22 14:58:46;;;;;;;;;;;;;;;;;;4991397;28;20031;-66
2022/08/22 15:01:15;;;;;;;9.50;3.03;;;;;;;;;;4990528;28;19918;-65
2022/08/22 15:03:42;;;;;;;8.40;2.33;;;;;;;;;;4990838;28;20041;-65
2022/08/22 15:06:28;;;;;;;6.32;2.20;;;;;;;;;;4990698;28;20672;-66
2022/08/22 15:08:55;;;;;;;6.35;2.70;;;;;;;;;;4990786;28;20053;-65
2022/08/22 15:11:28;;;;;;;7.15;2.28;;;;;;;;;;4990619;28;20158;-65
2022/08/22 15:14:31;;;;;;;5.90;2.40;;;;;;;;;;4990489;28;20038;-66
2022/08/22 15:17:00;;;;;;;7.22;2.20;;;;;;;;;;4990618;28;20042;-66
2022/08/22 15:19:25;;;;;;;6.72;2.30;;;;;;;;;;4990529;28;20082;-65
2022/08/22 15:22:08;;;;;;;6.53;1.98;;;;;;;;;;4997156;28;20034;-65
2022/08/22 15:24:58;;;;;;;8.90;2.20;;;;;;;;;;5030650;28;20036;-66
2022/08/22 15:27:25;;;;;;;5.53;2.33;;;;;;;;;;5071688;28;20098;-66
2022/08/22 15:29:58;;;;;;;7.15;2.83;;;;;;;;;;5071769;28;20033;-66
2022/08/22 15:32:27;;;;;;;7.13;2.63;;;;;;;;;;5072099;28;20411;-66
2022/08/22 15:35:10;;;;;;;6.63;2.67;;;;;;;;;;5072061;28;20519;-66
2022/08/22 15:37:59;;;;;;;6.35;2.47;;;;;;;;;;5071945;28;20549;-66
2022/08/22 15:40:33;;;;;;;6.13;2.17;;;;;;;;;;5071993;28;20029;-66
2022/08/22 15:43:12;;;;;;;6.13;2.28;;;;;;;;;;5071510;28;20025;-66
2022/08/22 15:45:38;;;;;;;5.22;2.30;;;;;;;;;;5071856;28;20489;-66
2022/08/22 15:48:12;;;;;;;11.98;2.33;;;;;;;;;;5071894;28;20044;-66
2022/08/22 15:50:53;;;;;;;9.15;2.40;;;;;;;;;;5071745;28;20391;-65
2022/08/22 15:53:23;;;;;;;7.25;2.30;;;;;;;;;;5071489;28;20049;-66
2022/08/22 15:56:10;;;;;;;6.93;2.10;;;;;;;;;;5071740;28;20044;-66
2022/08/22 15:58:39;;;;;;;7.88;2.35;;;;;;;;;;5071543;28;20052;-66
2022/08/22 16:01:10;;;;;;;6.88;2.17;;;;;;;;;;5071668;28;20125;-66
2022/08/22 16:03:50;;;;;;;8.02;2.30;;;;;;;;;;5071676;28;20126;-66
2022/08/22 16:06:47;;;;;;;8.48;2.83;;;;;;;;;;5073192;28;20029;-66